SBCY

Details ICAO SBCY (CGB)
Name Marechal Rondon
Region Brazil
Timezone America/Cuiaba (UTC-4.0)
Plans Departing 117
Arriving 101
Stats Elevation 609 ft / 186 m (AMSL)
Location -15.652930° -56.116720°
Runways 1
Magnetic Variation 17.467° W
Sunrise 2018-05-24 10:03:27 UTC / 2018-05-24 06:03:27 Local
Sunset 2018-05-24 21:22:03 UTC / 2018-05-24 17:22:03 Local
Advertisement - Login to hide

Runways

ID Width Length Bearing (true) Bearing (mag) Surface Threshold Offset Overrun Length
17 148 ft / 45 m 7,558 ft / 2,304 m 152.83° 170.30° Asphalt 0 ft / 0 m 190 ft / 58 m
35 148 ft / 45 m 7,558 ft / 2,304 m 332.82° 350.29° Asphalt 0 ft / 0 m 190 ft / 58 m

Approach Navaids

Runway Type Ident Frequency Range Bearing (true) Bearing (mag) Slope Elevation
35 Localiser ICB 109.30 MHz 18 nm / 33 km 333.66° 351.12° - 609 ft / 186 m (AMSL)

Map

Weather


0- 5 10 15 20 25 30 35+ Temperature / ° C

Clouds and Precipitation
Forecast for 2018-05-24 00:00 UTC. Updated 5 hours ago

Ground ~20,000 ft ~40,000 ft Winds

METAR

SBCY 240400Z 18003KT CAVOK 20/16 Q1019

TAF

TAF SBCY 232200Z 2400/2424 17008KT CAVOK TN16/2408Z TX28/2417Z BECMG 2411/2413 14005KT BECMG 2415/2417 17008KT RMK PEN

Frequencies

Tower 118.10 MHz CUIABA TWR
Approach 120.35 MHz CUIABA APP
Approach 119.40 MHz CUIABA APP
Warning: Do not use this data for real-world aviation or navigation. No guarantee of current accuracy is given.